CSHVD LPCS-LPFR
Flight info
| Callsign | CSHVD |
|---|---|
| Flight time | 0h 59m |
| Altitude | 3000 |
| Route | CHARLIE DCT BUGIO DCT CVAPO TS TE TSE BRCAR DCT SINES DCT LOULA |
| Aircraft | EC35/L-VGD/C |
Departure
| Time | 2026-05-06 09:26 |
|---|---|
| Airport | Cascais Airport (LPCS) |
Arrival
| Time | 2026-05-06 10:26 |
|---|---|
| Airport | Faro - Gago Coutinho International Airport (LPFR) |
| Time | Latitude | Longitude | Altitude | Speed | Heading |
|---|---|---|---|---|---|
| 2026-05-06 09:12 | 38.72301 | -9.35779 | 314 ft | 0 kts | 87° |
| 2026-05-06 09:23 | 38.72300 | -9.35781 | 315 ft | 2 kts | 96° |
| 2026-05-06 09:23 | 38.72293 | -9.35771 | 319 ft | 3 kts | 85° |
| 2026-05-06 09:23 | 38.72289 | -9.35751 | 321 ft | 3 kts | 70° |
| 2026-05-06 09:24 | 38.72300 | -9.35713 | 325 ft | 4 kts | 74° |
| 2026-05-06 09:24 | 38.72311 | -9.35660 | 322 ft | 6 kts | 76° |
| 2026-05-06 09:24 | 38.72323 | -9.35606 | 325 ft | 8 kts | 77° |
| 2026-05-06 09:24 | 38.72336 | -9.35561 | 325 ft | 5 kts | 83° |
| 2026-05-06 09:25 | 38.72343 | -9.35536 | 325 ft | 3 kts | 69° |
| 2026-05-06 09:25 | 38.72349 | -9.35496 | 324 ft | 5 kts | 79° |
| 2026-05-06 09:25 | 38.72303 | -9.35445 | 327 ft | 15 kts | 181° |
| 2026-05-06 09:25 | 38.72112 | -9.35375 | 420 ft | 47 kts | 166° |
| 2026-05-06 09:26 | 38.71653 | -9.35216 | 608 ft | 82 kts | 156° |
| 2026-05-06 09:26 | 38.71047 | -9.34910 | 760 ft | 102 kts | 147° |
| 2026-05-06 09:26 | 38.70439 | -9.34362 | 899 ft | 112 kts | 136° |
| 2026-05-06 09:26 | 38.69845 | -9.33704 | 1028 ft | 115 kts | 127° |
| 2026-05-06 09:27 | 38.69263 | -9.32949 | 1027 ft | 123 kts | 128° |
| 2026-05-06 09:27 | 38.68577 | -9.32227 | 1004 ft | 127 kts | 136° |
| 2026-05-06 09:27 | 38.67835 | -9.31681 | 1114 ft | 123 kts | 147° |
| 2026-05-06 09:27 | 38.67090 | -9.31096 | 1134 ft | 128 kts | 141° |
| 2026-05-06 09:28 | 38.66375 | -9.30390 | 1095 ft | 132 kts | 133° |
| 2026-05-06 09:28 | 38.65789 | -9.29493 | 1068 ft | 130 kts | 114° |
| 2026-05-06 09:28 | 38.65321 | -9.28562 | 1144 ft | 121 kts | 113° |
| 2026-05-06 09:28 | 38.64858 | -9.27655 | 1263 ft | 118 kts | 112° |
| 2026-05-06 09:29 | 38.64449 | -9.26733 | 1314 ft | 123 kts | 108° |
| 2026-05-06 09:29 | 38.64062 | -9.25779 | 1446 ft | 116 kts | 108° |
| 2026-05-06 09:29 | 38.63641 | -9.24858 | 1466 ft | 123 kts | 113° |
| 2026-05-06 09:29 | 38.63109 | -9.24003 | 1523 ft | 124 kts | 125° |
| 2026-05-06 09:30 | 38.62458 | -9.23227 | 1478 ft | 129 kts | 132° |
| 2026-05-06 09:30 | 38.61720 | -9.22560 | 1477 ft | 131 kts | 141° |
| 2026-05-06 09:30 | 38.60874 | -9.22092 | 1475 ft | 132 kts | 156° |
| 2026-05-06 09:30 | 38.60022 | -9.21779 | 1616 ft | 122 kts | 158° |
| 2026-05-06 09:31 | 38.59195 | -9.21422 | 1624 ft | 130 kts | 156° |
| 2026-05-06 09:31 | 38.58319 | -9.20986 | 1500 ft | 138 kts | 154° |
| 2026-05-06 09:31 | 38.57423 | -9.20549 | 1484 ft | 135 kts | 153° |
| 2026-05-06 09:31 | 38.56568 | -9.20118 | 1485 ft | 133 kts | 154° |
| 2026-05-06 09:32 | 38.55705 | -9.19672 | 1484 ft | 132 kts | 152° |
| 2026-05-06 09:32 | 38.54855 | -9.19223 | 1484 ft | 132 kts | 152° |
| 2026-05-06 09:32 | 38.54014 | -9.18774 | 1485 ft | 131 kts | 152° |
| 2026-05-06 09:32 | 38.53166 | -9.18318 | 1484 ft | 132 kts | 151° |
| 2026-05-06 09:33 | 38.52317 | -9.17854 | 1486 ft | 131 kts | 151° |
| 2026-05-06 09:33 | 38.51625 | -9.17121 | 1488 ft | 128 kts | 120° |
| 2026-05-06 09:33 | 38.51307 | -9.16115 | 1498 ft | 120 kts | 89° |
| 2026-05-06 09:33 | 38.51273 | -9.15063 | 1490 ft | 118 kts | 80° |
| 2026-05-06 09:34 | 38.51285 | -9.14010 | 1487 ft | 121 kts | 80° |
| 2026-05-06 09:34 | 38.51299 | -9.12916 | 1481 ft | 124 kts | 80° |
| 2026-05-06 09:34 | 38.51312 | -9.11804 | 1478 ft | 126 kts | 80° |
| 2026-05-06 09:34 | 38.51323 | -9.10692 | 1482 ft | 126 kts | 80° |
| 2026-05-06 09:35 | 38.51334 | -9.09569 | 1482 ft | 126 kts | 80° |
| 2026-05-06 09:35 | 38.51345 | -9.08441 | 1478 ft | 126 kts | 80° |
| 2026-05-06 09:35 | 38.51355 | -9.07335 | 1473 ft | 125 kts | 80° |
| 2026-05-06 09:35 | 38.51364 | -9.06212 | 1473 ft | 126 kts | 81° |
| 2026-05-06 09:36 | 38.51373 | -9.05108 | 1474 ft | 124 kts | 80° |
| 2026-05-06 09:36 | 38.51382 | -9.03995 | 1478 ft | 126 kts | 80° |
| 2026-05-06 09:36 | 38.51391 | -9.02886 | 1478 ft | 125 kts | 80° |
| 2026-05-06 09:36 | 38.51400 | -9.01757 | 1484 ft | 127 kts | 80° |
| 2026-05-06 09:37 | 38.51409 | -9.00630 | 1488 ft | 127 kts | 81° |
| 2026-05-06 09:37 | 38.51419 | -8.99494 | 1486 ft | 127 kts | 81° |
| 2026-05-06 09:37 | 38.51427 | -8.98368 | 1465 ft | 126 kts | 81° |
| 2026-05-06 09:37 | 38.51434 | -8.97259 | 1474 ft | 125 kts | 81° |
| 2026-05-06 09:38 | 38.51442 | -8.96148 | 1477 ft | 125 kts | 81° |
| 2026-05-06 09:38 | 38.51450 | -8.95014 | 1497 ft | 127 kts | 80° |
| 2026-05-06 09:38 | 38.51459 | -8.93887 | 1480 ft | 128 kts | 82° |
| 2026-05-06 09:38 | 38.51468 | -8.92741 | 1466 ft | 127 kts | 80° |
| 2026-05-06 09:39 | 38.51476 | -8.91641 | 1456 ft | 124 kts | 80° |
| 2026-05-06 09:39 | 38.51481 | -8.90539 | 1459 ft | 124 kts | 81° |
| 2026-05-06 09:39 | 38.51289 | -8.89423 | 1449 ft | 135 kts | 109° |
| 2026-05-06 09:39 | 38.50617 | -8.88563 | 1456 ft | 138 kts | 139° |
| 2026-05-06 09:40 | 38.49797 | -8.87935 | 1464 ft | 138 kts | 146° |
| 2026-05-06 09:40 | 38.48947 | -8.87360 | 1477 ft | 139 kts | 147° |
| 2026-05-06 09:40 | 38.47207 | -8.86166 | 1458 ft | 142 kts | 146° |
| 2026-05-06 09:41 | 38.46346 | -8.85565 | 1531 ft | 137 kts | 146° |
| 2026-05-06 09:41 | 38.45532 | -8.84997 | 1660 ft | 134 kts | 147° |
| 2026-05-06 09:41 | 38.44714 | -8.84423 | 1789 ft | 133 kts | 146° |
| 2026-05-06 09:41 | 38.43907 | -8.83854 | 1915 ft | 133 kts | 146° |
| 2026-05-06 09:42 | 38.43095 | -8.83283 | 2042 ft | 134 kts | 146° |
| 2026-05-06 09:42 | 38.42269 | -8.82722 | 2166 ft | 135 kts | 150° |
| 2026-05-06 09:42 | 38.41333 | -8.82520 | 2261 ft | 138 kts | 178° |
| 2026-05-06 09:42 | 38.40366 | -8.82599 | 2388 ft | 137 kts | 185° |
| 2026-05-06 09:43 | 38.39432 | -8.82765 | 2512 ft | 136 kts | 187° |
| 2026-05-06 09:43 | 38.38489 | -8.82935 | 2636 ft | 136 kts | 187° |
| 2026-05-06 09:43 | 38.37552 | -8.83099 | 2763 ft | 135 kts | 186° |
| 2026-05-06 09:43 | 38.36615 | -8.83259 | 2890 ft | 135 kts | 186° |
| 2026-05-06 09:44 | 38.35667 | -8.83418 | 2945 ft | 140 kts | 186° |
| 2026-05-06 09:44 | 38.34695 | -8.83577 | 2954 ft | 143 kts | 185° |
| 2026-05-06 09:44 | 38.33700 | -8.83735 | 2962 ft | 145 kts | 185° |
| 2026-05-06 09:44 | 38.32692 | -8.83894 | 2959 ft | 145 kts | 185° |
| 2026-05-06 09:45 | 38.31682 | -8.84053 | 2952 ft | 146 kts | 185° |
| 2026-05-06 09:45 | 38.30673 | -8.84212 | 2952 ft | 145 kts | 185° |
| 2026-05-06 09:45 | 38.29674 | -8.84371 | 2957 ft | 145 kts | 186° |
| 2026-05-06 09:45 | 38.28660 | -8.84534 | 2960 ft | 146 kts | 186° |
| 2026-05-06 09:46 | 38.27649 | -8.84696 | 2959 ft | 146 kts | 185° |
| 2026-05-06 09:46 | 38.26648 | -8.84856 | 2955 ft | 146 kts | 185° |
| 2026-05-06 09:46 | 38.25639 | -8.85018 | 2956 ft | 146 kts | 185° |
| 2026-05-06 09:46 | 38.24626 | -8.85181 | 2955 ft | 146 kts | 185° |
| 2026-05-06 09:47 | 38.23611 | -8.85344 | 2955 ft | 146 kts | 185° |
| 2026-05-06 09:47 | 38.22608 | -8.85506 | 2952 ft | 146 kts | 185° |
| 2026-05-06 09:47 | 38.21591 | -8.85669 | 2951 ft | 146 kts | 185° |
| 2026-05-06 09:47 | 38.20580 | -8.85831 | 2951 ft | 145 kts | 185° |
| 2026-05-06 09:48 | 38.19573 | -8.85992 | 2953 ft | 145 kts | 186° |
| 2026-05-06 09:48 | 38.18590 | -8.85843 | 2954 ft | 144 kts | 154° |
| 2026-05-06 09:48 | 38.17690 | -8.85281 | 2966 ft | 144 kts | 145° |
| 2026-05-06 09:48 | 38.16831 | -8.84613 | 2959 ft | 144 kts | 141° |
| 2026-05-06 09:49 | 38.16004 | -8.83913 | 2955 ft | 144 kts | 140° |
| 2026-05-06 09:49 | 38.15180 | -8.83186 | 2954 ft | 144 kts | 139° |
| 2026-05-06 09:49 | 38.14348 | -8.82462 | 2952 ft | 144 kts | 140° |
| 2026-05-06 09:49 | 38.13512 | -8.81752 | 2954 ft | 144 kts | 140° |
| 2026-05-06 09:50 | 38.12670 | -8.81049 | 2957 ft | 145 kts | 140° |
| 2026-05-06 09:50 | 38.11827 | -8.80352 | 2957 ft | 145 kts | 140° |
| 2026-05-06 09:50 | 38.10972 | -8.79651 | 2952 ft | 146 kts | 141° |
| 2026-05-06 09:50 | 38.10130 | -8.78963 | 2949 ft | 145 kts | 141° |
| 2026-05-06 09:51 | 38.09281 | -8.78272 | 2945 ft | 144 kts | 141° |
| 2026-05-06 09:51 | 38.08440 | -8.77588 | 2944 ft | 143 kts | 141° |
| 2026-05-06 09:51 | 38.07601 | -8.76908 | 2941 ft | 142 kts | 141° |
| 2026-05-06 09:51 | 38.06764 | -8.76230 | 2946 ft | 142 kts | 141° |
| 2026-05-06 09:52 | 38.05919 | -8.75547 | 2947 ft | 143 kts | 142° |
| 2026-05-06 09:52 | 38.05076 | -8.74867 | 2951 ft | 143 kts | 141° |
| 2026-05-06 09:52 | 38.04240 | -8.74191 | 2951 ft | 144 kts | 141° |
| 2026-05-06 09:52 | 38.03390 | -8.73504 | 2956 ft | 144 kts | 141° |
| 2026-05-06 09:53 | 38.02537 | -8.72816 | 2954 ft | 144 kts | 141° |
| 2026-05-06 09:53 | 38.01694 | -8.72135 | 2953 ft | 144 kts | 141° |
| 2026-05-06 09:53 | 38.00845 | -8.71449 | 2951 ft | 144 kts | 141° |
| 2026-05-06 09:53 | 37.99993 | -8.70761 | 2952 ft | 144 kts | 141° |
| 2026-05-06 09:54 | 37.99151 | -8.70082 | 2953 ft | 144 kts | 141° |
| 2026-05-06 09:54 | 37.98304 | -8.69398 | 2952 ft | 144 kts | 141° |
| 2026-05-06 09:54 | 37.97451 | -8.68711 | 2945 ft | 144 kts | 141° |
| 2026-05-06 09:54 | 37.96614 | -8.68037 | 2949 ft | 143 kts | 141° |
| 2026-05-06 09:55 | 37.95766 | -8.67354 | 2949 ft | 144 kts | 141° |
| 2026-05-06 09:55 | 37.94922 | -8.66674 | 2950 ft | 143 kts | 141° |
| 2026-05-06 09:55 | 37.94079 | -8.65996 | 2946 ft | 143 kts | 141° |
| 2026-05-06 09:55 | 37.93238 | -8.65319 | 2948 ft | 144 kts | 141° |
| 2026-05-06 09:56 | 37.92389 | -8.64636 | 2951 ft | 144 kts | 141° |
| 2026-05-06 09:56 | 37.91537 | -8.63951 | 2947 ft | 144 kts | 141° |
| 2026-05-06 09:56 | 37.90685 | -8.63266 | 2945 ft | 144 kts | 141° |
| 2026-05-06 09:56 | 37.89845 | -8.62590 | 2942 ft | 144 kts | 141° |
| 2026-05-06 09:57 | 37.89003 | -8.61913 | 2941 ft | 143 kts | 142° |
| 2026-05-06 09:57 | 37.88154 | -8.61231 | 2940 ft | 143 kts | 142° |
| 2026-05-06 09:57 | 37.87320 | -8.60561 | 2944 ft | 143 kts | 142° |
| 2026-05-06 09:57 | 37.86470 | -8.59880 | 2944 ft | 143 kts | 142° |
| 2026-05-06 09:58 | 37.85635 | -8.59209 | 2944 ft | 143 kts | 142° |
| 2026-05-06 09:58 | 37.84782 | -8.58525 | 2944 ft | 143 kts | 141° |
| 2026-05-06 09:58 | 37.83937 | -8.57847 | 2947 ft | 143 kts | 141° |
| 2026-05-06 09:58 | 37.83096 | -8.57172 | 2943 ft | 143 kts | 141° |
| 2026-05-06 09:59 | 37.82252 | -8.56495 | 2938 ft | 143 kts | 142° |
| 2026-05-06 09:59 | 37.81417 | -8.55825 | 2940 ft | 143 kts | 142° |
| 2026-05-06 09:59 | 37.80575 | -8.55150 | 2941 ft | 143 kts | 141° |
| 2026-05-06 09:59 | 37.79731 | -8.54474 | 2943 ft | 143 kts | 141° |
| 2026-05-06 10:00 | 37.78883 | -8.53795 | 2941 ft | 144 kts | 141° |
| 2026-05-06 10:00 | 37.78037 | -8.53116 | 2938 ft | 144 kts | 141° |
| 2026-05-06 10:00 | 37.76918 | -8.52220 | 2932 ft | 143 kts | 141° |
| 2026-05-06 10:00 | 37.76352 | -8.51767 | 2934 ft | 143 kts | 141° |
| 2026-05-06 10:01 | 37.75512 | -8.51094 | 2937 ft | 143 kts | 142° |
| 2026-05-06 10:01 | 37.74676 | -8.50426 | 2940 ft | 143 kts | 141° |
| 2026-05-06 10:01 | 37.73832 | -8.49751 | 2940 ft | 143 kts | 141° |
| 2026-05-06 10:01 | 37.72981 | -8.49071 | 2941 ft | 143 kts | 141° |
| 2026-05-06 10:02 | 37.72135 | -8.48394 | 2937 ft | 143 kts | 142° |
| 2026-05-06 10:02 | 37.71300 | -8.47726 | 2940 ft | 143 kts | 141° |
| 2026-05-06 10:02 | 37.70448 | -8.47045 | 2940 ft | 143 kts | 141° |
| 2026-05-06 10:02 | 37.69613 | -8.46379 | 2936 ft | 143 kts | 142° |
| 2026-05-06 10:03 | 37.68768 | -8.45704 | 2934 ft | 142 kts | 141° |
| 2026-05-06 10:03 | 37.67927 | -8.45034 | 2935 ft | 142 kts | 141° |
| 2026-05-06 10:03 | 37.67089 | -8.44365 | 2938 ft | 141 kts | 142° |
| 2026-05-06 10:03 | 37.66260 | -8.43703 | 2940 ft | 142 kts | 142° |
| 2026-05-06 10:04 | 37.65426 | -8.43037 | 2935 ft | 142 kts | 142° |
| 2026-05-06 10:04 | 37.64584 | -8.42365 | 2928 ft | 142 kts | 142° |
| 2026-05-06 10:04 | 37.63737 | -8.41689 | 2927 ft | 142 kts | 142° |
| 2026-05-06 10:04 | 37.62907 | -8.41029 | 2924 ft | 142 kts | 142° |
| 2026-05-06 10:05 | 37.62065 | -8.40359 | 2931 ft | 142 kts | 142° |
| 2026-05-06 10:05 | 37.61229 | -8.39693 | 2927 ft | 143 kts | 141° |
| 2026-05-06 10:05 | 37.60387 | -8.39022 | 2927 ft | 142 kts | 141° |
| 2026-05-06 10:05 | 37.59558 | -8.38363 | 2966 ft | 139 kts | 142° |
| 2026-05-06 10:06 | 37.58758 | -8.37735 | 3092 ft | 137 kts | 142° |
| 2026-05-06 10:06 | 37.57936 | -8.37078 | 2955 ft | 149 kts | 141° |
| 2026-05-06 10:06 | 37.57075 | -8.36381 | 2933 ft | 144 kts | 141° |
| 2026-05-06 10:06 | 37.56228 | -8.35704 | 2922 ft | 142 kts | 142° |
| 2026-05-06 10:07 | 37.55400 | -8.35047 | 2921 ft | 142 kts | 142° |
| 2026-05-06 10:07 | 37.54554 | -8.34376 | 2925 ft | 141 kts | 143° |
| 2026-05-06 10:07 | 37.53725 | -8.33719 | 2917 ft | 142 kts | 143° |
| 2026-05-06 10:07 | 37.52890 | -8.33057 | 2918 ft | 141 kts | 143° |
| 2026-05-06 10:08 | 37.52053 | -8.32393 | 2924 ft | 142 kts | 142° |
| 2026-05-06 10:08 | 37.51214 | -8.31728 | 2925 ft | 142 kts | 142° |
| 2026-05-06 10:08 | 37.50374 | -8.31061 | 2926 ft | 142 kts | 142° |
| 2026-05-06 10:08 | 37.49536 | -8.30395 | 2926 ft | 142 kts | 143° |
| 2026-05-06 10:09 | 37.48699 | -8.29731 | 2925 ft | 142 kts | 142° |
| 2026-05-06 10:09 | 37.47863 | -8.29066 | 2921 ft | 141 kts | 142° |
| 2026-05-06 10:09 | 37.47029 | -8.28405 | 2922 ft | 141 kts | 142° |
| 2026-05-06 10:09 | 37.46208 | -8.27751 | 2921 ft | 141 kts | 142° |
| 2026-05-06 10:10 | 37.45379 | -8.27086 | 2918 ft | 140 kts | 142° |
| 2026-05-06 10:10 | 37.44550 | -8.26425 | 2920 ft | 140 kts | 142° |
| 2026-05-06 10:10 | 37.43731 | -8.25773 | 2918 ft | 140 kts | 142° |
| 2026-05-06 10:10 | 37.42901 | -8.25115 | 2915 ft | 140 kts | 142° |
| 2026-05-06 10:11 | 37.42080 | -8.24464 | 2915 ft | 140 kts | 143° |
| 2026-05-06 10:11 | 37.41249 | -8.23807 | 2928 ft | 140 kts | 143° |
| 2026-05-06 10:11 | 37.40422 | -8.23152 | 2920 ft | 141 kts | 143° |
| 2026-05-06 10:11 | 37.39585 | -8.22490 | 2928 ft | 141 kts | 143° |
| 2026-05-06 10:12 | 37.38745 | -8.21825 | 2939 ft | 142 kts | 142° |
| 2026-05-06 10:12 | 37.37905 | -8.21161 | 2935 ft | 142 kts | 142° |
| 2026-05-06 10:12 | 37.37065 | -8.20496 | 2920 ft | 142 kts | 142° |
| 2026-05-06 10:12 | 37.36241 | -8.19844 | 2938 ft | 141 kts | 142° |
| 2026-05-06 10:13 | 37.35412 | -8.19188 | 2920 ft | 141 kts | 142° |
| 2026-05-06 10:13 | 37.34580 | -8.18532 | 2923 ft | 140 kts | 143° |
| 2026-05-06 10:13 | 37.33753 | -8.17879 | 2916 ft | 139 kts | 142° |
| 2026-05-06 10:13 | 37.32934 | -8.17234 | 2917 ft | 139 kts | 142° |
| 2026-05-06 10:14 | 37.32125 | -8.16597 | 2929 ft | 138 kts | 143° |
| 2026-05-06 10:14 | 37.31302 | -8.15949 | 2937 ft | 139 kts | 143° |
| 2026-05-06 10:14 | 37.30477 | -8.15298 | 2940 ft | 140 kts | 143° |
| 2026-05-06 10:14 | 37.29646 | -8.14641 | 2926 ft | 140 kts | 143° |
| 2026-05-06 10:15 | 37.28828 | -8.13995 | 2925 ft | 140 kts | 143° |
| 2026-05-06 10:15 | 37.28000 | -8.13342 | 2937 ft | 139 kts | 143° |
| 2026-05-06 10:15 | 37.27179 | -8.12695 | 2924 ft | 140 kts | 142° |
| 2026-05-06 10:15 | 37.26354 | -8.12042 | 2905 ft | 138 kts | 141° |
| 2026-05-06 10:16 | 37.25553 | -8.11396 | 2838 ft | 138 kts | 140° |
| 2026-05-06 10:16 | 37.24753 | -8.10745 | 2684 ft | 138 kts | 141° |
| 2026-05-06 10:16 | 37.23938 | -8.10090 | 2545 ft | 137 kts | 141° |
| 2026-05-06 10:16 | 37.23138 | -8.09454 | 2458 ft | 134 kts | 141° |
| 2026-05-06 10:17 | 37.22364 | -8.08854 | 2497 ft | 130 kts | 142° |
| 2026-05-06 10:17 | 37.21592 | -8.08255 | 2491 ft | 130 kts | 142° |
| 2026-05-06 10:17 | 37.20815 | -8.07649 | 2493 ft | 130 kts | 142° |
| 2026-05-06 10:17 | 37.20044 | -8.07047 | 2489 ft | 130 kts | 142° |
| 2026-05-06 10:18 | 37.19285 | -8.06452 | 2499 ft | 129 kts | 142° |
| 2026-05-06 10:18 | 37.18517 | -8.05851 | 2502 ft | 130 kts | 143° |
| 2026-05-06 10:18 | 37.17754 | -8.05251 | 2509 ft | 130 kts | 142° |
| 2026-05-06 10:18 | 37.16970 | -8.04626 | 2394 ft | 134 kts | 141° |
| 2026-05-06 10:19 | 37.16182 | -8.03993 | 2265 ft | 134 kts | 141° |
| 2026-05-06 10:19 | 37.15392 | -8.03364 | 2140 ft | 134 kts | 141° |
| 2026-05-06 10:19 | 37.14609 | -8.02744 | 2006 ft | 134 kts | 141° |
| 2026-05-06 10:19 | 37.13776 | -8.02195 | 1855 ft | 136 kts | 152° |
| 2026-05-06 10:20 | 37.12898 | -8.01756 | 1726 ft | 135 kts | 154° |
| 2026-05-06 10:20 | 37.12028 | -8.01341 | 1589 ft | 134 kts | 154° |
| 2026-05-06 10:20 | 37.11158 | -8.00938 | 1511 ft | 129 kts | 154° |
| 2026-05-06 10:20 | 37.10333 | -8.00576 | 1499 ft | 124 kts | 156° |
| 2026-05-06 10:21 | 37.09517 | -8.00226 | 1499 ft | 123 kts | 156° |
| 2026-05-06 10:21 | 37.08707 | -7.99872 | 1505 ft | 122 kts | 155° |
| 2026-05-06 10:21 | 37.07899 | -7.99511 | 1503 ft | 122 kts | 155° |
| 2026-05-06 10:21 | 37.07095 | -7.99148 | 1503 ft | 122 kts | 155° |
| 2026-05-06 10:22 | 37.06291 | -7.98780 | 1447 ft | 125 kts | 154° |
| 2026-05-06 10:22 | 37.05468 | -7.98390 | 1314 ft | 127 kts | 152° |
| 2026-05-06 10:22 | 37.04880 | -7.97645 | 1219 ft | 121 kts | 107° |
| 2026-05-06 10:22 | 37.04666 | -7.96633 | 1116 ft | 121 kts | 97° |
| 2026-05-06 10:23 | 37.04483 | -7.95604 | 1013 ft | 120 kts | 97° |
| 2026-05-06 10:23 | 37.04305 | -7.94606 | 1005 ft | 115 kts | 97° |
| 2026-05-06 10:23 | 37.04133 | -7.93642 | 1004 ft | 112 kts | 97° |
| 2026-05-06 10:23 | 37.03960 | -7.92682 | 1003 ft | 112 kts | 97° |
| 2026-05-06 10:24 | 37.03785 | -7.91719 | 954 ft | 117 kts | 104° |
| 2026-05-06 10:24 | 37.03180 | -7.91122 | 883 ft | 118 kts | 164° |
| 2026-05-06 10:24 | 37.02395 | -7.91277 | 739 ft | 112 kts | 197° |
| 2026-05-06 10:24 | 37.01836 | -7.91871 | 702 ft | 98 kts | 225° |
| 2026-05-06 10:25 | 37.01461 | -7.92493 | 692 ft | 85 kts | 221° |
| 2026-05-06 10:25 | 37.01127 | -7.93112 | 548 ft | 90 kts | 238° |
| 2026-05-06 10:25 | 37.01111 | -7.93867 | 428 ft | 86 kts | 279° |
| 2026-05-06 10:25 | 37.01162 | -7.94531 | 319 ft | 69 kts | 278° |
| 2026-05-06 10:26 | 37.01306 | -7.95120 | 118 ft | 70 kts | 270° |
| 2026-05-06 10:26 | 37.01328 | -7.95715 | 109 ft | 64 kts | 269° |
| 2026-05-06 10:26 | 37.01387 | -7.96160 | 56 ft | 35 kts | 283° |
| 2026-05-06 10:26 | 37.01416 | -7.96379 | 34 ft | 19 kts | 288° |
| 2026-05-06 10:27 | 37.01433 | -7.96503 | 28 ft | 9 kts | 288° |
| 2026-05-06 10:27 | 37.01447 | -7.96557 | 29 ft | 7 kts | 324° |
| 2026-05-06 10:27 | 37.01498 | -7.96579 | 26 ft | 5 kts | 17° |
| 2026-05-06 10:27 | 37.01521 | -7.96570 | 27 ft | 2 kts | 17° |
| 2026-05-06 10:28 | 37.01547 | -7.96567 | 26 ft | 4 kts | 14° |
| 2026-05-06 10:28 | 37.01587 | -7.96560 | 26 ft | 5 kts | 21° |
| 2026-05-06 10:28 | 37.01639 | -7.96546 | 29 ft | 8 kts | 17° |
| 2026-05-06 10:28 | 37.01692 | -7.96536 | 30 ft | 7 kts | 21° |
| 2026-05-06 10:29 | 37.01749 | -7.96525 | 26 ft | 9 kts | 15° |
| 2026-05-06 10:29 | 37.01792 | -7.96567 | 27 ft | 7 kts | 282° |
| 2026-05-06 10:29 | 37.01795 | -7.96603 | 26 ft | 5 kts | 283° |
| 2026-05-06 10:29 | 37.01767 | -7.96640 | 24 ft | 8 kts | 193° |
| 2026-05-06 10:30 | 37.01728 | -7.96648 | 27 ft | 4 kts | 193° |
| 2026-05-06 10:30 | 37.01713 | -7.96652 | 22 ft | 0 kts | 190° |
| 2026-05-06 10:30 | 37.01712 | -7.96652 | 20 ft | 0 kts | 193° |